Time;durP1;ratioP1;P1;durP2;ratioP2;P2;SDS_P1;SDS_P2;PMS_P1;PMS_P2;Temp;Humidity;BMP_temperature;BMP_pressure;BME280_temperature;BME280_humidity;BME280_pressure;Samples;Min_cycle;Max_cycle;Signal;HPM_P1;HPM_P2
2022/11/24 00:01:55;;;;;;;26.75;14.88;;;5.70;99.90;;;;;;5066589;28;20040;-50
2022/11/24 00:04:21;;;;;;;37.42;16.30;;;5.40;99.90;;;;;;5066721;28;20474;-51
2022/11/24 00:06:47;;;;;;;39.85;16.10;;;5.70;99.90;;;;;;5067242;28;20105;-50
2022/11/24 00:09:12;;;;;;;37.97;15.82;;;5.70;99.90;;;;;;5066551;28;20067;-49
2022/11/24 00:11:38;;;;;;;38.50;14.45;;;5.40;99.90;;;;;;5066324;28;20445;-49
2022/11/24 00:14:05;;;;;;;30.90;13.77;;;6.10;99.90;;;;;;5064847;28;20056;-50
2022/11/24 00:16:36;;;;;;;42.40;15.07;;;5.60;99.90;;;;;;5066585;28;20639;-52
2022/11/24 00:19:10;;;;;;;34.53;14.95;;;5.50;99.90;;;;;;5066260;28;20406;-49
2022/11/24 00:21:37;;;;;;;40.00;14.55;;;5.10;99.90;;;;;;5066284;28;20036;-50
2022/11/24 00:24:03;;;;;;;39.03;14.77;;;5.40;99.90;;;;;;5066390;28;20040;-51
2022/11/24 00:26:31;;;;;;;32.65;13.65;;;5.40;99.90;;;;;;5066576;28;20037;-51
2022/11/24 00:28:58;;;;;;;33.97;11.95;;;5.40;99.90;;;;;;5070149;28;20040;-48
2022/11/24 00:31:34;;;;;;;31.00;13.35;;;5.40;99.90;;;;;;5070083;28;20089;-48
2022/11/24 00:34:02;;;;;;;36.53;12.43;;;5.70;99.90;;;;;;5070207;28;20115;-50
2022/11/24 00:36:30;;;;;;;34.03;12.27;;;5.30;99.90;;;;;;5068944;28;20048;-49
2022/11/24 00:39:02;;;;;;;26.13;11.15;;;5.30;99.90;;;;;;5085862;28;20071;-52
2022/11/24 00:41:28;;;;;;;33.15;13.15;;;5.10;99.90;;;;;;5070156;28;20124;-48
2022/11/24 00:43:55;;;;;;;38.60;12.98;;;5.30;99.90;;;;;;5069977;28;20098;-49
2022/11/24 00:46:21;;;;;;;30.23;11.68;;;5.30;99.90;;;;;;5069653;28;20087;-51
2022/11/24 00:48:47;;;;;;;29.80;11.50;;;5.20;99.90;;;;;;5085588;28;20051;-50
2022/11/24 00:51:15;;;;;;;28.85;11.18;;;5.10;99.90;;;;;;5069861;28;20389;-50
2022/11/24 00:53:41;;;;;;;36.67;11.23;;;5.10;99.90;;;;;;5069456;28;20055;-51
2022/11/24 00:56:07;;;;;;;27.30;11.75;;;5.20;99.90;;;;;;5069420;28;20098;-50
2022/11/24 00:58:34;;;;;;;36.90;10.70;;;5.20;99.90;;;;;;5069373;28;20113;-51
2022/11/24 01:01:09;;;;;;;31.08;10.77;;;5.30;99.90;;;;;;5069793;28;20495;-51
2022/11/24 01:03:35;;;;;;;33.88;11.35;;;5.10;99.90;;;;;;5069314;28;20044;-49
2022/11/24 01:06:28;;;;;;;39.95;11.93;;;5.10;99.90;;;;;;5069795;28;20143;-51
2022/11/24 01:08:55;;;;;;;;;;;5.10;99.90;;;;;;5069229;28;20063;-50
2022/11/24 01:11:25;;;;;;;38.33;10.75;;;5.10;99.90;;;;;;5068879;28;19928;-49
2022/11/24 01:13:53;;;;;;;38.50;10.98;;;5.10;99.90;;;;;;5069300;28;20052;-48
2022/11/24 01:16:31;;;;;;;31.17;9.73;;;6.10;99.90;;;;;;5068896;28;20083;-48
2022/11/24 01:18:57;;;;;;;29.75;9.80;;;5.10;99.90;;;;;;5068806;28;20110;-48
2022/11/24 01:21:23;;;;;;;34.13;10.90;;;5.10;99.90;;;;;;5068806;28;20048;-50
2022/11/24 01:23:49;;;;;;;34.35;10.75;;;5.00;99.90;;;;;;5068431;28;20047;-52
2022/11/24 01:26:17;;;;;;;33.38;9.88;;;5.10;99.90;;;;;;5083964;28;20053;-50
2022/11/24 01:28:43;;;;;;;36.13;10.18;;;5.20;99.90;;;;;;5068660;28;20055;-50
2022/11/24 01:31:09;;;;;;;33.05;10.10;;;5.20;99.90;;;;;;5068462;28;20048;-51
2022/11/24 01:33:35;;;;;;;47.58;11.32;;;5.20;99.90;;;;;;5068380;28;20078;-49
2022/11/24 01:36:02;;;;;;;30.65;9.65;;;5.80;99.90;;;;;;5068514;28;20470;-51
2022/11/24 01:38:28;;;;;;;36.10;9.77;;;4.90;99.90;;;;;;5066749;28;20045;-51
2022/11/24 01:41:06;;;;;;;34.42;10.23;;;5.30;99.90;;;;;;5068659;28;20373;-51
2022/11/24 01:43:32;;;;;;;38.53;10.65;;;4.90;99.90;;;;;;5068272;28;20158;-51
2022/11/24 01:46:10;;;;;;;29.45;9.65;;;5.00;99.90;;;;;;5068291;28;20513;-51
2022/11/24 01:48:42;;;;;;;28.00;8.02;;;4.90;99.90;;;;;;5068011;28;20044;-48
2022/11/24 01:51:19;;;;;;;25.00;6.88;;;5.00;99.90;;;;;;5068361;28;20067;-50
2022/11/24 01:53:50;;;;;;;34.65;9.25;;;5.10;99.90;;;;;;5068239;28;20047;-48
2022/11/24 01:56:16;;;;;;;26.02;7.55;;;5.00;99.90;;;;;;5068067;28;20777;-48
2022/11/24 01:58:45;;;;;;;28.92;7.28;;;5.00;99.90;;;;;;5068100;28;20051;-49
2022/11/24 02:01:11;;;;;;;33.05;9.70;;;5.00;99.90;;;;;;5068493;28;20048;-49
2022/11/24 02:03:41;;;;;;;30.88;7.50;;;5.10;99.90;;;;;;5067761;28;20553;-48
2022/11/24 02:06:14;;;;;;;35.75;8.55;;;4.90;99.90;;;;;;5068149;28;20041;-48
2022/11/24 02:08:50;;;;;;;32.63;8.38;;;5.00;99.90;;;;;;5068020;28;20558;-50
2022/11/24 02:11:16;;;;;;;35.33;8.63;;;5.20;99.90;;;;;;5067686;28;20549;-50
2022/11/24 02:13:44;;;;;;;30.73;8.25;;;6.00;99.90;;;;;;5083593;28;20052;-48
2022/11/24 02:16:10;;;;;;;37.95;7.22;;;5.30;99.90;;;;;;5068745;28;20040;-49
2022/11/24 02:18:41;;;;;;;27.52;7.18;;;5.30;99.90;;;;;;5068483;28;20048;-47
2022/11/24 02:21:10;;;;;;;34.47;7.68;;;5.40;99.90;;;;;;5068593;28;20041;-52
2022/11/24 02:23:43;;;;;;;29.05;7.72;;;5.40;99.90;;;;;;5083162;28;20044;-51
2022/11/24 02:26:32;;;;;;;30.75;6.88;;;5.00;99.90;;;;;;5066623;28;20045;-51
2022/11/24 02:28:58;;;;;;;33.20;6.65;;;5.10;99.90;;;;;;5066364;28;20163;-49
2022/11/24 02:31:24;;;;;;;32.88;6.65;;;5.20;99.90;;;;;;5068142;28;20172;-51
2022/11/24 02:33:50;;;;;;;33.83;6.90;;;5.30;99.90;;;;;;5067881;28;20687;-48
2022/11/24 02:36:16;;;;;;;41.80;6.75;;;5.10;99.90;;;;;;5067931;28;20846;-51
2022/11/24 02:38:41;;;;;;;38.85;6.95;;;5.10;99.90;;;;;;5067446;28;20041;-51
2022/11/24 02:41:12;;;;;;;30.20;5.90;;;5.00;99.90;;;;;;5068119;28;20119;-47
2022/11/24 02:43:42;;;;;;;32.05;6.88;;;5.00;99.90;;;;;;5067607;28;20056;-51
2022/11/24 02:46:09;;;;;;;27.30;7.43;;;5.00;99.90;;;;;;5067968;28;20094;-51
2022/11/24 02:48:36;;;;;;;36.08;7.05;;;5.10;99.90;;;;;;5067261;28;20091;-49
2022/11/24 02:51:01;;;;;;;31.20;7.03;;;5.00;99.90;;;;;;5066750;28;20490;-48
2022/11/24 02:53:27;;;;;;;31.65;7.25;;;5.20;99.90;;;;;;5067608;28;20066;-51
2022/11/24 02:55:53;;;;;;;37.03;7.78;;;4.90;99.90;;;;;;5066766;28;20589;-49
2022/11/24 02:58:19;;;;;;;33.05;7.50;;;5.00;99.90;;;;;;5066916;28;20124;-48
2022/11/24 03:00:45;;;;;;;31.35;6.35;;;5.00;99.90;;;;;;5066688;28;20520;-49
2022/11/24 03:03:10;;;;;;;25.23;6.15;;;6.00;99.90;;;;;;5067040;28;20044;-50
2022/11/24 03:05:36;;;;;;;31.13;6.10;;;5.20;99.90;;;;;;5066830;28;20119;-48
2022/11/24 03:08:03;;;;;;;35.35;8.25;;;5.30;99.90;;;;;;5066551;28;20044;-49
2022/11/24 03:10:28;;;;;;;35.42;7.00;;;5.00;99.90;;;;;;5066636;28;20082;-50
2022/11/24 03:12:54;;;;;;;30.67;6.90;;;5.20;99.90;;;;;;5067111;28;20798;-49
2022/11/24 03:15:21;;;;;;;24.85;5.80;;;5.20;99.90;;;;;;5067313;28;20691;-51
2022/11/24 03:17:46;;;;;;;35.90;6.40;;;5.80;99.90;;;;;;5066809;28;20041;-49
2022/11/24 03:20:12;;;;;;;35.95;7.07;;;5.30;99.90;;;;;;5065630;28;20036;-48
2022/11/24 03:22:38;;;;;;;26.13;5.68;;;5.30;99.90;;;;;;5066746;28;20039;-51
2022/11/24 03:25:04;;;;;;;23.42;5.05;;;5.30;99.90;;;;;;5065757;28;20409;-48
2022/11/24 03:27:30;;;;;;;30.50;6.35;;;5.20;99.90;;;;;;5066825;28;20146;-49
2022/11/24 03:29:56;;;;;;;30.92;5.55;;;5.40;99.90;;;;;;5066476;28;20040;-48
2022/11/24 03:32:22;;;;;;;24.92;6.15;;;5.40;99.90;;;;;;5066441;28;20044;-49
2022/11/24 03:34:47;;;;;;;30.83;5.90;;;5.30;99.90;;;;;;5066530;28;20553;-48
2022/11/24 03:37:13;;;;;;;32.10;5.57;;;5.30;99.90;;;;;;5065369;28;20040;-50
2022/11/24 03:39:39;;;;;;;29.20;6.72;;;5.30;99.90;;;;;;5066381;28;20116;-49
2022/11/24 03:42:05;;;;;;;25.65;6.43;;;5.30;99.90;;;;;;5066857;28;20036;-47
2022/11/24 03:44:30;;;;;;;31.00;5.95;;;5.20;99.90;;;;;;5066557;28;20044;-49
2022/11/24 03:46:56;;;;;;;28.65;5.40;;;5.40;99.90;;;;;;5066086;28;20037;-49
2022/11/24 03:49:21;;;;;;;26.75;5.00;;;5.50;99.90;;;;;;5066093;28;20127;-48
2022/11/24 03:51:47;;;;;;;30.70;5.72;;;5.50;99.90;;;;;;5065557;28;20159;-50
2022/11/24 03:54:13;;;;;;;29.38;4.68;;;5.70;99.90;;;;;;5066522;28;20098;-48
2022/11/24 03:56:38;;;;;;;30.98;6.82;;;5.80;99.90;;;;;;5066599;28;20371;-50
2022/11/24 03:59:04;;;;;;;30.02;5.50;;;5.80;99.90;;;;;;5065996;28;20041;-48
2022/11/24 04:01:30;;;;;;;33.17;5.18;;;5.90;99.90;;;;;;5065772;28;20045;-50
2022/11/24 04:03:55;;;;;;;29.20;5.22;;;5.60;99.90;;;;;;5066164;28;20111;-48
2022/11/24 04:06:21;;;;;;;30.90;5.30;;;5.70;99.90;;;;;;5066445;28;20033;-49
2022/11/24 04:08:47;;;;;;;28.58;6.57;;;5.40;99.90;;;;;;5066476;28;20151;-49
2022/11/24 04:12:42;;;;;;;23.63;4.50;;;5.60;99.90;;;;;;5066228;28;20059;-48
2022/11/24 04:13:58;;;;;;;30.08;5.35;;;5.30;99.90;;;;;;5065834;28;20049;-48
2022/11/24 04:16:23;;;;;;;29.33;6.05;;;5.30;99.90;;;;;;5065969;28;20051;-47
2022/11/24 04:18:52;;;;;;;25.00;5.18;;;5.20;99.90;;;;;;5065714;28;20247;-49
2022/11/24 04:21:18;;;;;;;24.00;4.03;;;5.20;99.90;;;;;;5066260;28;20049;-49
2022/11/24 04:23:44;;;;;;;26.70;4.22;;;5.20;99.90;;;;;;5066060;28;20044;-50
2022/11/24 04:26:09;;;;;;;27.02;4.25;;;5.10;99.90;;;;;;5065962;28;20386;-48
2022/11/24 04:28:35;;;;;;;18.45;3.65;;;5.10;99.90;;;;;;5065879;28;20634;-47
2022/11/24 04:31:05;;;;;;;19.83;4.85;;;5.20;99.90;;;;;;5065945;28;20127;-48
2022/11/24 04:33:31;;;;;;;22.08;3.95;;;5.10;99.90;;;;;;5066451;28;20067;-51
2022/11/24 04:35:56;;;;;;;29.63;3.90;;;5.50;99.90;;;;;;5066120;28;20681;-49
2022/11/24 04:38:22;;;;;;;26.33;3.63;;;5.20;99.90;;;;;;5066156;28;20040;-49
2022/11/24 04:40:48;;;;;;;21.45;5.72;;;5.10;99.90;;;;;;5065685;28;20044;-47
2022/11/24 04:43:16;;;;;;;34.72;6.50;;;5.20;99.90;;;;;;5065399;28;20051;-48
2022/11/24 04:45:42;;;;;;;25.20;3.67;;;5.10;99.90;;;;;;5065792;28;20082;-49
2022/11/24 04:48:07;;;;;;;22.25;3.55;;;5.00;99.90;;;;;;5065425;28;20040;-48
2022/11/24 04:50:33;;;;;;;30.00;5.50;;;4.80;99.90;;;;;;5065876;28;20059;-47
2022/11/24 04:52:58;;;;;;;27.67;3.67;;;4.90;99.90;;;;;;5065301;28;20036;-51
2022/11/24 04:55:24;;;;;;;23.85;4.00;;;5.00;99.90;;;;;;5066023;28;20594;-50
2022/11/24 04:57:50;;;;;;;27.20;4.40;;;4.90;99.90;;;;;;5065715;28;20044;-48
2022/11/24 05:00:16;;;;;;;23.27;3.65;;;4.80;99.90;;;;;;5065336;28;20124;-49
2022/11/24 05:02:41;;;;;;;25.48;3.60;;;4.70;99.90;;;;;;5065248;28;20037;-49
2022/11/24 05:05:08;;;;;;;21.25;4.10;;;4.80;99.90;;;;;;5065006;28;20052;-47
2022/11/24 05:07:34;;;;;;;28.92;3.88;;;4.70;99.90;;;;;;5065328;28;20049;-50
2022/11/24 05:12:43;;;;;;;28.30;4.45;;;4.90;99.90;;;;;;5066019;28;20131;-48
2022/11/24 05:15:09;;;;;;;27.77;4.22;;;4.80;99.90;;;;;;5068992;28;20144;-50
2022/11/24 05:17:37;;;;;;;28.65;4.85;;;4.80;99.90;;;;;;5066902;28;20051;-52
2022/11/24 05:20:04;;;;;;;19.65;3.28;;;4.90;99.90;;;;;;5067164;28;20047;-49
2022/11/24 05:22:30;;;;;;;28.55;4.13;;;4.60;99.90;;;;;;5067994;28;20044;-48
2022/11/24 05:24:56;;;;;;;20.38;3.03;;;4.60;99.90;;;;;;5068564;28;20052;-49
2022/11/24 05:27:22;;;;;;;20.73;3.25;;;4.70;99.90;;;;;;5068188;28;20484;-51
2022/11/24 05:29:48;;;;;;;28.45;4.05;;;4.90;99.90;;;;;;5068203;28;20044;-51
2022/11/24 05:32:14;;;;;;;23.42;3.15;;;4.80;99.90;;;;;;5068148;28;20044;-52
2022/11/24 05:34:39;;;;;;;21.75;3.40;;;4.70;99.90;;;;;;5069165;28;20656;-50
2022/11/24 05:37:05;;;;;;;23.85;2.78;;;4.60;99.90;;;;;;5068745;28;20083;-50
2022/11/24 05:39:37;;;;;;;26.20;4.13;;;4.80;99.90;;;;;;5068899;28;20122;-50
2022/11/24 05:44:49;;;;;;;26.92;4.32;;;4.60;99.90;;;;;;5067740;28;20048;-49
2022/11/24 05:47:15;;;;;;;23.45;3.47;;;4.80;99.90;;;;;;5069243;28;20685;-48
2022/11/24 05:49:41;;;;;;;25.23;3.40;;;4.90;99.90;;;;;;5068922;28;20504;-51
2022/11/24 05:52:07;;;;;;;28.02;3.83;;;4.90;99.90;;;;;;5069192;28;20029;-52
2022/11/24 05:54:33;;;;;;;24.88;5.38;;;4.80;99.90;;;;;;5069283;28;20041;-51
2022/11/24 05:56:58;;;;;;;21.35;2.85;;;4.80;99.90;;;;;;5068862;28;20076;-51
2022/11/24 05:59:24;;;;;;;31.20;3.53;;;4.60;99.90;;;;;;5068439;28;20121;-51
2022/11/24 06:01:50;;;;;;;26.70;3.20;;;4.80;99.90;;;;;;5068797;28;20040;-51
2022/11/24 06:04:15;;;;;;;25.67;3.75;;;4.90;99.90;;;;;;5068488;28;20690;-52
2022/11/24 06:06:41;;;;;;;23.90;2.78;;;4.70;99.90;;;;;;5068941;28;20052;-52
2022/11/24 06:09:07;;;;;;;23.50;3.65;;;4.70;99.90;;;;;;5068281;28;20402;-53
2022/11/24 06:11:33;;;;;;;23.52;3.00;;;4.60;99.90;;;;;;5068450;28;20064;-50
2022/11/24 06:13:58;;;;;;;28.27;4.80;;;4.60;99.90;;;;;;5068998;28;20386;-49
2022/11/24 06:16:24;;;;;;;22.95;3.83;;;4.60;99.90;;;;;;5068444;28;20087;-48
2022/11/24 06:18:50;;;;;;;24.73;3.30;;;4.60;99.90;;;;;;5068438;28;20044;-52
2022/11/24 06:21:16;;;;;;;29.50;4.38;;;4.60;99.90;;;;;;5068265;28;20149;-51
2022/11/24 06:23:41;;;;;;;25.30;3.38;;;4.50;99.90;;;;;;5068210;28;20091;-50
2022/11/24 06:26:08;;;;;;;26.20;3.72;;;4.50;99.90;;;;;;5065619;28;20087;-51
2022/11/24 06:28:34;;;;;;;25.17;3.80;;;4.70;99.90;;;;;;5067933;28;20810;-48
2022/11/24 06:31:03;;;;;;;27.88;3.88;;;4.60;99.90;;;;;;5068136;28;20048;-51
2022/11/24 06:33:34;;;;;;;29.08;3.10;;;4.40;99.90;;;;;;5067672;28;20565;-49
2022/11/24 06:36:05;;;;;;;33.85;3.85;;;4.80;99.90;;;;;;5067898;28;20048;-52
2022/11/24 06:38:31;;;;;;;29.52;3.70;;;4.30;99.90;;;;;;5068210;28;20506;-50
2022/11/24 06:41:12;;;;;;;25.92;6.07;;;4.50;99.90;;;;;;5068004;28;20036;-48
2022/11/24 06:43:37;;;;;;;24.70;3.42;;;4.50;99.90;;;;;;5067999;28;20036;-51
2022/11/24 06:46:03;;;;;;;24.25;2.90;;;4.50;99.90;;;;;;5068119;28;20127;-51
2022/11/24 06:48:29;;;;;;;22.90;3.78;;;4.40;99.90;;;;;;5067886;28;20091;-48
2022/11/24 06:50:59;;;;;;;20.67;3.63;;;4.50;99.90;;;;;;5067516;28;20041;-48
2022/11/24 06:53:25;;;;;;;26.48;3.35;;;4.60;99.90;;;;;;5065525;28;20442;-48
2022/11/24 06:55:51;;;;;;;25.42;3.72;;;4.50;99.90;;;;;;5067020;28;20048;-51
2022/11/24 06:58:17;;;;;;;26.67;4.05;;;4.60;99.90;;;;;;5066972;28;20040;-49
2022/11/24 07:00:43;;;;;;;22.63;3.53;;;4.50;99.90;;;;;;5067072;28;20504;-51
2022/11/24 07:03:15;;;;;;;21.98;3.95;;;4.10;99.90;;;;;;5067146;28;20120;-51
2022/11/24 07:05:41;;;;;;;;;;;4.50;99.90;;;;;;5067262;28;20052;-49
2022/11/24 07:08:07;;;;;;;22.55;3.38;;;4.60;99.90;;;;;;5066799;28;19920;-51
2022/11/24 07:10:33;;;;;;;22.35;4.28;;;4.60;99.90;;;;;;5066436;28;20055;-48
2022/11/24 07:12:59;;;;;;;25.15;4.45;;;4.50;99.90;;;;;;5066730;28;20478;-49
2022/11/24 07:15:24;;;;;;;23.13;5.30;;;4.70;99.90;;;;;;5066245;28;20074;-51
2022/11/24 07:17:50;;;;;;;26.40;3.72;;;4.70;99.90;;;;;;5066699;28;20047;-50
2022/11/24 07:20:16;;;;;;;28.33;4.90;;;4.50;99.90;;;;;;5066486;28;20040;-48
2022/11/24 07:22:41;;;;;;;26.70;4.22;;;4.30;99.90;;;;;;5067047;28;20052;-49
2022/11/24 07:25:09;;;;;;;27.67;5.07;;;4.50;99.90;;;;;;5066894;28;20044;-48
2022/11/24 07:27:35;;;;;;;27.25;4.22;;;4.30;99.90;;;;;;5066557;28;20126;-51
2022/11/24 07:30:01;;;;;;;25.65;4.60;;;4.40;99.90;;;;;;5066623;28;20051;-50
2022/11/24 07:32:28;;;;;;;29.33;5.65;;;4.30;99.90;;;;;;5066299;28;20041;-48
2022/11/24 07:34:54;;;;;;;31.13;5.32;;;4.50;99.90;;;;;;5066465;28;20090;-48
2022/11/24 07:37:19;;;;;;;28.17;4.60;;;4.50;99.90;;;;;;5066111;28;20040;-52
2022/11/24 07:39:45;;;;;;;30.20;5.00;;;4.50;99.90;;;;;;5066518;28;20045;-48
2022/11/24 07:42:10;;;;;;;33.33;4.95;;;4.40;99.90;;;;;;5066500;28;20040;-49
2022/11/24 07:44:36;;;;;;;24.60;4.47;;;4.50;99.90;;;;;;5066784;28;20048;-48
2022/11/24 07:47:02;;;;;;;31.27;5.80;;;4.40;99.90;;;;;;5066773;28;20047;-48
2022/11/24 07:49:28;;;;;;;27.92;5.15;;;4.50;99.90;;;;;;5066722;28;20137;-49
2022/11/24 07:51:53;;;;;;;28.90;4.28;;;4.50;99.90;;;;;;5066606;28;20122;-51
2022/11/24 07:54:19;;;;;;;33.30;5.50;;;4.70;99.90;;;;;;5066989;28;20040;-48
2022/11/24 07:56:47;;;;;;;19.20;5.15;;;4.80;99.90;;;;;;5066882;28;20040;-48
2022/11/24 07:59:13;;;;;;;26.98;5.35;;;4.60;99.90;;;;;;5067020;28;20052;-49
2022/11/24 08:01:39;;;;;;;39.00;6.72;;;4.60;99.90;;;;;;5066444;28;20051;-48
2022/11/24 08:04:05;;;;;;;37.13;6.55;;;4.80;99.90;;;;;;5066028;28;20044;-47
2022/11/24 08:06:31;;;;;;;42.08;9.50;;;5.40;99.90;;;;;;5066218;28;20044;-50
2022/11/24 08:08:57;;;;;;;26.27;6.03;;;4.60;99.90;;;;;;5066547;28;20058;-49
2022/11/24 08:11:24;;;;;;;32.67;6.13;;;4.40;99.90;;;;;;5065919;28;20136;-50
2022/11/24 08:13:49;;;;;;;32.92;5.68;;;4.50;99.90;;;;;;5066845;28;20044;-47
2022/11/24 08:16:17;;;;;;;31.98;6.78;;;4.60;99.90;;;;;;5066264;28;20123;-50
2022/11/24 08:18:47;;;;;;;31.02;6.93;;;4.60;99.90;;;;;;5066363;28;20051;-48
2022/11/24 08:21:13;;;;;;;31.45;6.57;;;4.80;99.90;;;;;;5066430;28;20068;-49
2022/11/24 08:23:39;;;;;;;31.08;6.15;;;4.80;99.90;;;;;;5066287;28;20044;-51
2022/11/24 08:26:08;;;;;;;33.72;6.28;;;4.80;99.90;;;;;;5066654;28;20051;-49
2022/11/24 08:28:33;;;;;;;30.77;5.63;;;4.80;99.90;;;;;;5065936;28;20051;-52
2022/11/24 08:31:31;;;;;;;24.10;5.70;;;4.90;99.90;;;;;;5081824;28;20671;-49
2022/11/24 08:33:57;;;;;;;24.90;5.75;;;5.00;99.90;;;;;;5081132;28;20058;-47
2022/11/24 08:36:23;;;;;;;30.00;6.10;;;5.00;99.90;;;;;;5066049;28;20045;-51
2022/11/24 08:38:56;;;;;;;21.40;5.53;;;5.00;99.90;;;;;;5064451;28;20097;-48
2022/11/24 08:41:23;;;;;;;38.33;7.30;;;5.10;99.90;;;;;;5066237;28;20390;-48
2022/11/24 08:43:49;;;;;;;35.13;6.45;;;5.20;99.90;;;;;;5065788;28;20063;-49
2022/11/24 08:46:16;;;;;;;25.70;6.13;;;5.30;99.90;;;;;;5065622;28;20793;-50
2022/11/24 08:48:43;;;;;;;29.98;6.28;;;5.30;99.90;;;;;;5067502;28;20098;-51
2022/11/24 08:51:11;;;;;;;24.15;6.20;;;5.30;99.90;;;;;;5069052;28;20079;-49
2022/11/24 08:53:38;;;;;;;26.33;6.72;;;5.40;99.90;;;;;;5068779;28;20046;-51
2022/11/24 08:56:04;;;;;;;26.77;5.82;;;5.40;99.90;;;;;;5069368;28;20110;-48
2022/11/24 08:58:31;;;;;;;32.10;7.18;;;5.40;99.90;;;;;;5039838;28;20048;-48
2022/11/24 09:01:10;;;;;;;25.08;6.32;;;5.50;99.90;;;;;;5047843;28;20071;-50
2022/11/24 09:03:39;;;;;;;35.35;7.53;;;5.50;99.90;;;;;;5047960;28;20052;-51
2022/11/24 09:06:06;;;;;;;32.92;7.63;;;5.80;99.90;;;;;;5047901;28;20051;-54
2022/11/24 09:08:32;;;;;;;34.22;6.70;;;5.80;99.90;;;;;;5048080;28;20512;-62
2022/11/24 09:11:17;;;;;;;25.48;7.00;;;6.00;99.90;;;;;;5046631;28;20064;-51
2022/11/24 09:13:43;;;;;;;29.27;7.18;;;6.40;99.90;;;;;;5043001;28;20071;-61
2022/11/24 09:16:12;;;;;;;27.58;7.00;;;7.10;99.90;;;;;;5043938;28;20041;-63
2022/11/24 09:18:37;;;;;;;23.73;6.82;;;6.40;99.90;;;;;;5045553;28;20052;-58
2022/11/24 09:21:06;;;;;;;23.30;6.90;;;6.60;99.90;;;;;;5028806;28;20056;-56
2022/11/24 09:23:32;;;;;;;25.33;6.68;;;6.30;99.90;;;;;;5046535;28;20052;-55
2022/11/24 09:26:03;;;;;;;24.35;7.45;;;6.90;99.90;;;;;;5046413;28;20064;-56
2022/11/24 09:28:29;;;;;;;29.17;6.28;;;6.60;99.90;;;;;;5045868;28;20592;-57
2022/11/24 09:30:59;;;;;;;22.10;5.70;;;6.60;99.90;;;;;;5027887;28;20152;-56
2022/11/24 09:33:25;;;;;;;18.58;6.63;;;6.90;99.90;;;;;;5046229;28;20053;-57
2022/11/24 09:35:51;;;;;;;23.13;5.78;;;7.10;99.90;;;;;;5028453;28;20057;-57
2022/11/24 09:38:16;;;;;;;22.63;7.18;;;6.90;99.90;;;;;;5046099;28;20391;-57
2022/11/24 09:40:42;;;;;;;18.70;6.07;;;6.90;99.90;;;;;;5028327;28;20053;-56
2022/11/24 09:43:23;;;;;;;16.77;5.38;;;7.30;99.90;;;;;;5027850;28;20048;-61
2022/11/24 09:46:15;;;;;;;23.90;7.03;;;6.90;99.90;;;;;;5045720;28;20239;-57
2022/11/24 09:48:46;;;;;;;21.13;5.35;;;7.10;99.90;;;;;;5011709;28;20128;-57
2022/11/24 09:51:14;;;;;;;16.75;6.00;;;7.30;99.90;;;;;;5046441;28;20061;-48
2022/11/24 09:53:58;;;;;;;19.95;5.40;;;7.70;99.90;;;;;;5046426;28;20045;-49
2022/11/24 09:56:27;;;;;;;17.15;5.10;;;7.80;99.90;;;;;;5046971;28;20052;-52
2022/11/24 09:58:58;;;;;;;20.08;4.75;;;7.80;99.90;;;;;;5033604;28;20057;-56
2022/11/24 10:01:39;;;;;;;18.20;6.05;;;7.90;99.90;;;;;;5061259;28;20091;-63
2022/11/24 10:04:16;;;;;;;17.77;4.07;;;7.40;99.90;;;;;;5047552;28;20115;-67
2022/11/24 10:07:12;;;;;;;16.55;4.50;;;7.40;99.90;;;;;;5048242;28;20691;-57
2022/11/24 10:09:59;;;;;;;15.35;4.47;;;7.40;99.90;;;;;;5046590;28;20056;-48
2022/11/24 10:12:47;;;;;;;13.77;4.30;;;7.40;99.90;;;;;;5048050;28;20148;-58
2022/11/24 10:15:24;;;;;;;14.18;4.10;;;7.40;99.90;;;;;;5047646;28;20040;-58
2022/11/24 10:18:11;;;;;;;18.52;3.97;;;7.40;99.90;;;;;;5047663;28;20463;-59
2022/11/24 10:20:49;;;;;;;15.82;3.78;;;7.40;99.90;;;;;;5047748;28;20683;-58
2022/11/24 10:23:34;;;;;;;16.70;3.75;;;7.40;99.90;;;;;;5063410;28;20863;-59
2022/11/24 10:26:03;;;;;;;11.52;3.63;;;7.50;99.90;;;;;;5046589;28;20454;-58
2022/11/24 10:28:42;;;;;;;10.57;3.10;;;8.30;99.90;;;;;;5063594;28;20106;-58
2022/11/24 10:31:35;;;;;;;11.50;3.17;;;7.70;99.90;;;;;;5047775;28;20045;-58
2022/11/24 10:34:11;;;;;;;9.20;3.30;;;7.70;99.90;;;;;;5048103;28;20044;-59
2022/11/24 10:36:47;;;;;;;8.13;2.55;;;7.80;99.90;;;;;;5048601;28;20045;-59
2022/11/24 10:39:22;;;;;;;8.98;2.92;;;8.80;99.90;;;;;;5047753;28;20048;-59
2022/11/24 10:42:10;;;;;;;12.30;2.60;;;7.90;99.90;;;;;;5047991;28;20044;-59
2022/11/24 10:44:36;;;;;;;13.27;3.05;;;8.60;99.90;;;;;;5047799;28;20483;-59
2022/11/24 10:47:02;;;;;;;9.05;3.05;;;7.90;99.90;;;;;;5047791;28;20700;-59
2022/11/24 10:49:31;;;;;;;9.70;3.10;;;7.70;99.90;;;;;;5047949;28;20099;-59
2022/11/24 10:52:15;;;;;;;12.95;2.63;;;7.90;99.90;;;;;;5047281;28;20489;-59
2022/11/24 10:54:58;;;;;;;8.45;3.40;;;8.70;99.90;;;;;;5047502;28;20083;-59
2022/11/24 10:57:35;;;;;;;8.75;3.42;;;8.00;99.90;;;;;;5062591;28;20041;-59
2022/11/24 11:00:26;;;;;;;10.40;2.55;;;8.00;99.90;;;;;;5062531;28;20401;-59
2022/11/24 11:03:18;;;;;;;8.82;2.97;;;8.00;99.90;;;;;;5047264;28;20068;-59
2022/11/24 11:06:13;;;;;;;10.10;2.95;;;8.00;99.90;;;;;;5047293;28;20041;-59
2022/11/24 11:08:39;;;;;;;8.85;3.35;;;8.00;99.90;;;;;;5062111;28;20052;-59
2022/11/24 11:11:13;;;;;;;9.55;2.78;;;8.20;99.90;;;;;;5046503;28;20059;-59
2022/11/24 11:13:52;;;;;;;8.13;2.72;;;8.30;99.90;;;;;;5046613;28;20144;-59
2022/11/24 11:16:38;;;;;;;8.50;3.33;;;8.30;99.90;;;;;;5046452;28;20071;-59
2022/11/24 11:19:25;;;;;;;9.63;3.33;;;8.10;99.90;;;;;;5061818;28;20056;-59
2022/11/24 11:22:00;;;;;;;9.30;3.55;;;8.50;99.90;;;;;;5045914;28;20094;-59
2022/11/24 11:24:27;;;;;;;12.40;4.28;;;8.50;99.90;;;;;;5047820;28;20045;-59
2022/11/24 11:27:17;;;;;;;11.45;2.90;;;8.90;99.90;;;;;;5046179;28;20044;-58
2022/11/24 11:29:43;;;;;;;11.98;3.28;;;8.80;99.90;;;;;;5047167;28;20377;-59
2022/11/24 11:32:27;;;;;;;9.57;4.40;;;8.90;99.90;;;;;;5062061;28;20049;-59
2022/11/24 11:34:55;;;;;;;9.02;3.70;;;9.00;99.90;;;;;;5046815;28;20521;-59
2022/11/24 11:37:26;;;;;;;9.27;3.05;;;8.90;99.90;;;;;;5047313;28;20041;-58
2022/11/24 11:39:53;;;;;;;11.88;4.10;;;9.60;99.90;;;;;;5047018;28;20735;-59
2022/11/24 11:42:25;;;;;;;10.30;3.75;;;9.10;99.90;;;;;;5046714;28;20052;-59
2022/11/24 11:44:56;;;;;;;8.43;3.78;;;9.30;99.90;;;;;;5045440;28;20079;-59
2022/11/24 11:47:30;;;;;;;12.30;3.72;;;9.40;99.90;;;;;;5046635;28;20120;-59
2022/11/24 11:49:56;;;;;;;6.43;2.80;;;9.60;99.90;;;;;;5047078;28;20032;-59
2022/11/24 11:52:37;;;;;;;12.45;3.38;;;9.60;99.90;;;;;;5045741;28;20103;-59
2022/11/24 11:55:20;;;;;;;9.85;3.30;;;10.30;99.90;;;;;;5047065;28;20079;-59
2022/11/24 11:57:50;;;;;;;;;;;9.50;99.90;;;;;;5046562;28;20053;-59
2022/11/24 12:00:20;;;;;;;12.15;2.67;;;9.30;99.90;;;;;;5046233;28;20015;-59
2022/11/24 12:03:04;;;;;;;10.85;3.10;;;9.30;99.90;;;;;;5062844;28;20048;-59
2022/11/24 12:05:53;;;;;;;10.75;2.88;;;9.20;99.90;;;;;;5045873;28;20045;-59
2022/11/24 12:08:19;;;;;;;9.40;2.63;;;9.90;99.90;;;;;;5047295;28;20087;-59
2022/11/24 12:10:57;;;;;;;8.80;2.47;;;9.10;99.90;;;;;;5046764;28;20057;-59
2022/11/24 12:13:38;;;;;;;11.73;2.80;;;8.90;99.90;;;;;;5046400;28;20063;-58
2022/11/24 12:16:17;;;;;;;6.97;1.90;;;9.10;99.90;;;;;;5046233;28;20515;-59
2022/11/24 12:19:03;;;;;;;9.23;2.80;;;9.10;99.90;;;;;;5046229;28;20080;-59
2022/11/24 12:22:03;;;;;;;10.80;2.80;;;9.00;99.90;;;;;;5045106;28;20076;-59
2022/11/24 12:24:31;;;;;;;12.13;3.00;;;9.20;99.90;;;;;;5044147;28;20109;-58
2022/11/24 12:27:08;;;;;;;11.80;2.67;;;9.10;99.90;;;;;;5045210;28;20037;-58
2022/11/24 12:30:07;;;;;;;8.77;2.95;;;9.10;99.90;;;;;;5046418;28;20106;-58
2022/11/24 12:33:01;;;;;;;14.73;2.13;;;9.00;99.90;;;;;;5040623;28;20060;-58
2022/11/24 12:35:36;;;;;;;10.95;2.85;;;9.00;99.90;;;;;;5044622;28;20123;-59
2022/11/24 12:38:19;;;;;;;12.18;2.30;;;9.00;99.90;;;;;;5046338;28;20130;-59
2022/11/24 12:40:56;;;;;;;13.18;1.98;;;9.00;99.90;;;;;;5062026;28;20071;-59
2022/11/24 12:43:34;;;;;;;11.23;2.63;;;8.90;99.90;;;;;;5043707;28;20179;-56
2022/11/24 12:46:34;;;;;;;11.68;2.30;;;8.90;99.90;;;;;;5041459;28;20410;-55
2022/11/24 12:49:17;;;;;;;11.18;2.70;;;8.90;99.90;;;;;;5042149;28;20079;-56
2022/11/24 12:51:48;;;;;;;13.27;3.08;;;8.90;99.90;;;;;;5043285;28;20728;-67
2022/11/24 12:54:18;;;;;;;10.43;3.47;;;8.80;99.90;;;;;;5044363;28;20045;-64
2022/11/24 12:56:48;;;;;;;12.23;3.33;;;9.70;99.90;;;;;;5059447;28;20126;-59
2022/11/24 12:59:52;;;;;;;10.00;3.05;;;8.70;99.90;;;;;;5043057;28;20049;-62
2022/11/24 13:02:23;;;;;;;11.93;3.28;;;8.70;99.90;;;;;;5042003;28;20052;-64
2022/11/24 13:04:53;;;;;;;16.10;4.43;;;8.70;99.90;;;;;;5041846;28;20045;-60
2022/11/24 13:07:47;;;;;;;10.95;4.13;;;8.70;99.90;;;;;;5058000;28;20118;-61
2022/11/24 13:10:27;;;;;;;10.68;4.28;;;8.70;99.90;;;;;;5043253;28;20045;-54